Time;durP1;ratioP1;P1;durP2;ratioP2;P2;SDS_P1;SDS_P2;PMS_P1;PMS_P2;Temp;Humidity;BMP_temperature;BMP_pressure;BME280_temperature;BME280_humidity;BME280_pressure;Samples;Min_cycle;Max_cycle;Signal;HPM_P1;HPM_P2
2024/03/02 05:06:41;;;;;;;0.30;0.30;;;4.20;99.90;;;;;;5325111;23;20235;-64
2024/03/02 05:09:07;;;;;;;0.40;0.40;;;4.20;99.90;;;;;;4862245;29;20648;-63
2024/03/02 05:14:05;;;;;;;1.23;1.23;;;4.10;99.90;;;;;;4862957;29;20686;-64
2024/03/02 05:16:41;;;;;;;0.30;0.30;;;4.00;99.90;;;;;;4835783;29;20209;-63
2024/03/02 05:19:07;;;;;;;0.40;0.40;;;4.00;99.90;;;;;;4828502;29;20584;-64
2024/03/02 05:21:33;;;;;;;0.40;0.40;;;3.90;99.90;;;;;;4844788;29;20201;-63
2024/03/02 05:23:59;;;;;;;0.30;0.30;;;3.90;99.90;;;;;;4845301;29;20176;-63
2024/03/02 05:26:25;;;;;;;0.60;0.60;;;3.90;99.90;;;;;;4843045;29;20252;-63
2024/03/02 05:28:51;;;;;;;0.30;0.30;;;3.90;99.90;;;;;;4843809;29;20721;-63
2024/03/02 05:31:16;;;;;;;0.30;0.30;;;3.80;99.90;;;;;;4827294;29;20188;-63
2024/03/02 05:33:43;;;;;;;0.30;0.30;;;3.80;99.90;;;;;;4843642;29;20179;-63
2024/03/02 05:36:09;;;;;;;0.47;0.47;;;3.80;99.90;;;;;;4825448;29;20556;-64
2024/03/02 05:38:35;;;;;;;0.40;0.40;;;3.80;99.90;;;;;;4843526;29;20173;-62
2024/03/02 05:41:00;;;;;;;0.40;0.40;;;3.80;99.90;;;;;;4843064;29;20173;-63
2024/03/02 05:43:26;;;;;;;0.47;0.47;;;3.80;99.90;;;;;;4843162;29;20438;-62
2024/03/02 05:45:52;;;;;;;0.40;0.40;;;3.80;99.90;;;;;;4842615;29;20441;-62
2024/03/02 05:48:17;;;;;;;0.40;0.40;;;3.80;99.90;;;;;;4843510;29;20182;-63
2024/03/02 05:50:43;;;;;;;0.40;0.40;;;3.70;99.90;;;;;;4826891;29;20185;-63
2024/03/02 05:53:08;;;;;;;0.40;0.40;;;3.70;99.90;;;;;;4826361;29;20210;-63
2024/03/02 05:55:34;;;;;;;0.43;0.43;;;3.70;99.90;;;;;;4841827;29;20248;-63
2024/03/02 06:00:32;;;;;;;0.55;0.55;;;3.70;99.90;;;;;;4842976;29;20416;-62
2024/03/02 06:02:58;;;;;;;0.40;0.40;;;3.70;99.90;;;;;;4842867;29;20177;-63
2024/03/02 06:05:24;;;;;;;0.30;0.30;;;3.70;99.90;;;;;;4833675;29;20177;-64
2024/03/02 06:07:50;;;;;;;0.40;0.40;;;3.70;99.90;;;;;;4850488;29;20220;-64
2024/03/02 06:10:16;;;;;;;0.40;0.40;;;3.70;99.90;;;;;;4846079;29;20220;-64
2024/03/02 06:12:41;;;;;;;0.30;0.30;;;3.70;99.90;;;;;;4826392;29;20423;-64
2024/03/02 06:15:07;;;;;;;0.33;0.33;;;3.80;99.90;;;;;;4825902;29;20883;-63
2024/03/02 06:17:35;;;;;;;0.40;0.40;;;3.80;99.90;;;;;;4824703;29;20266;-64
2024/03/02 06:20:01;;;;;;;0.60;0.60;;;3.80;99.90;;;;;;4824472;29;20422;-64
2024/03/02 06:22:26;;;;;;;0.40;0.40;;;3.90;99.90;;;;;;4824516;29;20178;-63
2024/03/02 06:24:52;;;;;;;0.30;0.30;;;3.90;99.90;;;;;;4824108;29;20208;-65
2024/03/02 06:27:17;;;;;;;0.33;0.33;;;4.00;99.90;;;;;;4840716;29;20209;-65
2024/03/02 06:29:43;;;;;;;0.40;0.40;;;4.00;99.90;;;;;;4824457;29;20258;-64
2024/03/02 06:32:08;;;;;;;0.40;0.40;;;4.00;99.90;;;;;;4824446;29;20180;-64
2024/03/02 06:34:34;;;;;;;0.30;0.30;;;4.10;99.90;;;;;;4827789;29;21035;-65
2024/03/02 06:37:00;;;;;;;0.43;0.43;;;4.10;99.90;;;;;;4842092;29;20201;-65
2024/03/02 06:39:25;;;;;;;0.50;0.50;;;4.20;99.90;;;;;;4842202;29;20254;-65
2024/03/02 06:41:51;;;;;;;0.33;0.33;;;4.20;99.90;;;;;;4842371;29;20529;-66
2024/03/02 06:44:17;;;;;;;0.30;0.30;;;4.30;99.90;;;;;;4841599;29;20266;-64
2024/03/02 06:46:43;;;;;;;0.40;0.40;;;4.30;99.90;;;;;;4831249;29;20355;-64
2024/03/02 06:49:10;;;;;;;0.30;0.30;;;4.30;99.90;;;;;;4825512;29;20196;-64
2024/03/02 06:51:36;;;;;;;0.40;0.40;;;4.40;99.90;;;;;;4842322;29;20574;-64
2024/03/02 06:54:02;;;;;;;0.30;0.30;;;4.40;99.90;;;;;;4842039;29;20301;-64
2024/03/02 06:56:27;;;;;;;0.40;0.40;;;4.40;99.90;;;;;;4841768;29;20484;-67
2024/03/02 06:58:53;;;;;;;0.30;0.30;;;4.50;99.90;;;;;;4842201;29;20226;-64
2024/03/02 07:01:20;;;;;;;0.40;0.40;;;4.60;99.90;;;;;;4841792;29;20653;-64
2024/03/02 07:03:45;;;;;;;0.30;0.30;;;4.70;99.90;;;;;;4825498;29;20261;-67
2024/03/02 07:06:11;;;;;;;0.30;0.30;;;4.70;99.90;;;;;;4842606;29;20227;-67
2024/03/02 07:08:37;;;;;;;0.30;0.30;;;4.80;99.90;;;;;;4835368;29;20204;-64
2024/03/02 07:11:02;;;;;;;0.40;0.40;;;4.80;99.90;;;;;;4829681;29;20186;-63
2024/03/02 07:13:28;;;;;;;0.40;0.40;;;5.00;99.90;;;;;;4845621;29;20188;-64
2024/03/02 07:18:31;;;;;;;0.40;0.40;;;5.30;99.90;;;;;;4845677;29;20184;-63
2024/03/02 07:21:01;;;;;;;0.38;0.38;;;5.50;99.90;;;;;;4845708;29;20183;-65
2024/03/02 07:23:27;;;;;;;0.30;0.30;;;5.70;99.90;;;;;;4845515;29;20184;-62
2024/03/02 07:25:56;;;;;;;0.40;0.40;;;6.00;99.90;;;;;;4828436;29;20204;-66
2024/03/02 07:28:25;;;;;;;0.40;0.40;;;6.30;99.90;;;;;;4845189;29;20571;-65
2024/03/02 07:31:05;;;;;;;1.73;1.73;;;6.70;99.90;;;;;;4848184;29;20191;-65
2024/03/02 07:33:31;;;;;;;0.30;0.30;;;7.20;99.90;;;;;;4845557;29;20535;-66
2024/03/02 07:35:59;;;;;;;0.30;0.30;;;7.80;99.90;;;;;;4844744;29;20219;-66
2024/03/02 07:38:25;;;;;;;0.38;0.38;;;8.20;99.90;;;;;;4828574;29;20797;-67
2024/03/02 07:40:50;;;;;;;0.30;0.30;;;8.70;99.90;;;;;;4828601;29;20265;-66
2024/03/02 07:43:17;;;;;;;0.30;0.30;;;9.00;99.90;;;;;;4844859;29;20430;-67
2024/03/02 07:45:42;;;;;;;0.30;0.30;;;9.60;99.90;;;;;;4844470;29;20684;-68
2024/03/02 07:48:08;;;;;;;0.30;0.27;;;10.10;99.90;;;;;;4844879;29;20427;-66
2024/03/02 07:50:35;;;;;;;0.30;0.30;;;10.70;99.90;;;;;;4845044;29;20252;-64
2024/03/02 07:53:01;;;;;;;0.40;0.40;;;11.30;99.90;;;;;;4839174;29;20184;-67
2024/03/02 07:55:27;;;;;;;0.30;0.30;;;11.80;99.90;;;;;;4844417;29;20479;-64
2024/03/02 07:57:52;;;;;;;0.37;0.37;;;12.20;99.90;;;;;;4854153;29;20484;-63
2024/03/02 08:00:18;;;;;;;0.30;0.30;;;12.50;99.90;;;;;;4827768;29;20414;-68
2024/03/02 08:02:44;;;;;;;0.70;0.70;;;12.40;99.90;;;;;;4827897;29;20201;-65
2024/03/02 08:05:10;;;;;;;0.70;0.70;;;12.40;99.90;;;;;;4844409;29;20178;-62
2024/03/02 08:07:35;;;;;;;0.63;0.63;;;12.40;99.90;;;;;;4844452;29;20442;-63
2024/03/02 08:10:01;;;;;;;0.43;0.43;;;12.30;99.90;;;;;;4844903;29;20205;-62
2024/03/02 08:12:27;;;;;;;0.30;0.20;;;12.20;99.90;;;;;;4844313;29;20177;-63
2024/03/02 08:14:52;;;;;;;0.30;0.30;;;11.90;99.90;;;;;;4843999;29;20285;-63
2024/03/02 08:17:18;;;;;;;0.40;0.40;;;11.50;99.90;;;;;;4844379;29;20185;-63
2024/03/02 08:19:44;;;;;;;0.30;0.30;;;11.30;99.90;;;;;;4844259;29;20177;-62
2024/03/02 08:22:10;;;;;;;0.30;0.30;;;11.00;99.90;;;;;;4844318;29;20188;-62
2024/03/02 08:24:36;;;;;;;0.40;0.40;;;10.70;99.90;;;;;;4844368;29;20388;-63
2024/03/02 08:27:02;;;;;;;0.33;0.33;;;10.50;99.90;;;;;;4844211;29;20424;-64
2024/03/02 08:29:28;;;;;;;0.60;0.60;;;10.40;99.90;;;;;;4848551;29;20803;-65
2024/03/02 08:31:54;;;;;;;0.30;0.30;;;10.40;99.90;;;;;;4862755;29;20473;-64
2024/03/02 08:34:19;;;;;;;0.77;0.53;;;10.60;99.90;;;;;;4851000;29;20443;-65
2024/03/02 08:36:46;;;;;;;0.57;0.57;;;10.70;99.90;;;;;;4844297;29;20204;-65
2024/03/02 08:39:15;;;;;;;0.30;0.30;;;10.90;99.90;;;;;;4843800;29;20184;-62
2024/03/02 08:41:50;;;;;;;0.30;0.30;;;11.10;99.90;;;;;;4843958;29;20483;-62
2024/03/02 08:44:16;;;;;;;1.33;0.60;;;11.30;99.90;;;;;;4843410;29;20452;-64
2024/03/02 08:46:42;;;;;;;0.40;0.40;;;11.30;99.90;;;;;;4843809;29;20452;-64
2024/03/02 08:49:08;;;;;;;0.30;0.30;;;11.40;99.90;;;;;;4844097;29;20430;-63
2024/03/02 08:51:33;;;;;;;0.30;0.30;;;11.70;99.90;;;;;;4843998;29;20187;-64
2024/03/02 08:53:59;;;;;;;0.30;0.30;;;12.10;99.90;;;;;;4843918;29;20669;-63
2024/03/02 08:56:25;;;;;;;0.30;0.30;;;12.50;99.90;;;;;;4843364;29;20202;-61
2024/03/02 08:58:51;;;;;;;0.30;0.30;;;13.00;99.90;;;;;;4850440;29;20193;-62
2024/03/02 09:01:19;;;;;;;0.50;0.50;;;13.70;99.90;;;;;;4854242;29;20774;-66
2024/03/02 09:03:45;;;;;;;0.37;0.37;;;14.20;99.90;;;;;;4845000;29;20773;-63
2024/03/02 09:06:12;;;;;;;0.30;0.30;;;15.20;99.90;;;;;;4843235;29;20413;-65
2024/03/02 09:08:38;;;;;;;0.60;0.60;;;16.20;99.90;;;;;;4843444;29;20428;-65
2024/03/02 09:11:05;;;;;;;0.60;0.57;;;17.20;99.90;;;;;;4843549;29;20510;-65
2024/03/02 09:13:33;;;;;;;0.67;0.60;;;18.20;98.60;;;;;;4843251;29;20398;-67
2024/03/02 09:15:58;;;;;;;0.30;0.30;;;19.10;95.90;;;;;;4842780;29;20469;-65
2024/03/02 09:18:25;;;;;;;0.30;0.30;;;19.90;94.90;;;;;;4842883;29;20404;-65
2024/03/02 09:20:51;;;;;;;0.30;0.30;;;20.70;93.70;;;;;;4826530;29;20434;-65
2024/03/02 09:23:17;;;;;;;0.53;0.53;;;21.50;91.90;;;;;;4849793;29;20740;-65
2024/03/02 09:25:42;;;;;;;0.30;0.30;;;22.10;90.70;;;;;;4840762;29;20224;-65
2024/03/02 09:28:08;;;;;;;1.43;0.53;;;22.80;87.70;;;;;;4840452;29;20763;-64
2024/03/02 09:30:33;;;;;;;0.50;0.50;;;23.30;83.40;;;;;;4840279;29;20611;-65
2024/03/02 09:32:59;;;;;;;0.40;0.40;;;23.20;81.90;;;;;;4840709;29;20196;-65
2024/03/02 09:35:25;;;;;;;0.30;0.30;;;23.50;81.10;;;;;;4839158;29;20208;-65
2024/03/02 09:37:51;;;;;;;0.67;0.67;;;23.80;81.90;;;;;;4837401;29;20250;-64
2024/03/02 09:40:16;;;;;;;0.30;0.27;;;24.10;80.40;;;;;;4836873;29;20502;-65
2024/03/02 09:42:43;;;;;;;0.57;0.43;;;24.50;78.70;;;;;;4836648;29;20193;-65
2024/03/02 09:45:10;;;;;;;0.93;0.40;;;24.40;77.70;;;;;;4836429;29;20256;-65
2024/03/02 09:47:35;;;;;;;0.40;0.40;;;24.60;78.60;;;;;;4836678;29;20421;-63
2024/03/02 09:50:01;;;;;;;0.43;0.40;;;24.90;76.40;;;;;;4837080;29;20404;-62
2024/03/02 09:52:27;;;;;;;0.30;0.30;;;24.90;77.00;;;;;;4839746;29;20246;-64
2024/03/02 09:54:53;;;;;;;1.23;1.23;;;24.90;75.20;;;;;;4841917;29;20221;-64
2024/03/02 09:57:18;;;;;;;0.83;0.60;;;24.60;75.70;;;;;;4842694;29;20438;-64
2024/03/02 09:59:45;;;;;;;0.50;0.50;;;24.40;74.50;;;;;;4842779;29;20180;-64
2024/03/02 10:02:11;;;;;;;0.30;0.30;;;24.30;76.10;;;;;;4842895;29;20192;-64
2024/03/02 10:04:36;;;;;;;0.60;0.60;;;24.40;75.40;;;;;;4842684;29;20526;-64
2024/03/02 10:07:13;;;;;;;0.80;0.50;;;24.50;73.60;;;;;;4842549;29;20703;-64
2024/03/02 10:09:39;;;;;;;0.30;0.20;;;24.60;74.40;;;;;;4842752;29;20638;-64
2024/03/02 10:12:06;;;;;;;0.53;0.53;;;24.90;74.50;;;;;;4826383;29;20792;-65
2024/03/02 10:14:31;;;;;;;0.83;0.83;;;25.10;73.50;;;;;;4842295;29;20544;-65
2024/03/02 10:17:02;;;;;;;0.40;0.30;;;25.30;66.20;;;;;;4842489;29;20553;-65
2024/03/02 10:19:32;;;;;;;0.30;0.20;;;25.00;64.50;;;;;;4842775;29;20204;-63
2024/03/02 10:21:58;;;;;;;0.30;0.20;;;24.70;65.10;;;;;;4826304;29;20529;-63
2024/03/02 10:24:24;;;;;;;0.30;0.30;;;24.60;65.10;;;;;;4842463;29;20762;-64
2024/03/02 10:26:51;;;;;;;0.30;0.30;;;24.30;66.60;;;;;;4842626;29;20529;-65
2024/03/02 10:29:17;;;;;;;0.30;0.30;;;23.80;64.90;;;;;;4842486;29;20422;-64
2024/03/02 10:31:46;;;;;;;0.30;0.30;;;23.40;66.50;;;;;;4842508;29;20477;-64
2024/03/02 10:34:13;;;;;;;0.30;0.20;;;23.20;66.90;;;;;;4842511;29;20477;-64
2024/03/02 10:36:42;;;;;;;0.30;0.20;;;23.00;67.10;;;;;;4841910;29;20498;-64
2024/03/02 10:39:08;;;;;;;0.30;0.30;;;22.90;66.40;;;;;;4842559;29;20410;-64
2024/03/02 10:41:36;;;;;;;0.47;0.47;;;22.70;67.50;;;;;;4845911;29;20905;-65
2024/03/02 10:44:04;;;;;;;0.30;0.30;;;22.80;67.30;;;;;;4846823;29;20388;-64
2024/03/02 10:46:31;;;;;;;0.40;0.30;;;22.60;67.60;;;;;;4846770;29;21038;-64
2024/03/02 10:48:58;;;;;;;0.30;0.30;;;22.40;69.00;;;;;;4847063;29;20955;-64
2024/03/02 10:51:31;;;;;;;0.40;0.40;;;22.20;69.00;;;;;;4846589;29;20424;-64
2024/03/02 10:53:57;;;;;;;0.30;0.30;;;22.30;68.90;;;;;;4846715;29;20424;-63
2024/03/02 10:56:31;;;;;;;0.40;0.40;;;22.20;68.30;;;;;;4846600;29;20457;-65
2024/03/02 10:59:04;;;;;;;0.30;0.30;;;22.00;69.20;;;;;;4831113;29;20488;-64
2024/03/02 11:01:32;;;;;;;0.30;0.30;;;21.70;70.10;;;;;;4846778;29;20780;-64
2024/03/02 11:04:00;;;;;;;0.30;0.30;;;21.60;69.70;;;;;;4846543;29;20389;-64
2024/03/02 11:06:28;;;;;;;0.37;0.37;;;21.60;71.20;;;;;;4845661;29;20433;-65
2024/03/02 11:08:59;;;;;;;0.30;0.20;;;21.50;72.00;;;;;;4846320;29;20446;-64
2024/03/02 11:11:29;;;;;;;0.30;0.30;;;21.20;73.60;;;;;;4846274;29;20778;-63
2024/03/02 11:13:59;;;;;;;0.30;0.30;;;21.30;73.50;;;;;;4846057;29;20423;-64
2024/03/02 11:16:35;;;;;;;0.30;0.30;;;21.50;72.80;;;;;;4829265;29;20857;-64
2024/03/02 11:19:06;;;;;;;0.30;0.20;;;21.70;72.80;;;;;;4846809;29;20450;-64
2024/03/02 11:21:35;;;;;;;0.30;0.20;;;21.80;71.60;;;;;;4846179;29;20407;-65
2024/03/02 11:24:21;;;;;;;0.30;0.30;;;21.60;72.30;;;;;;4845470;29;20681;-65
2024/03/02 11:26:47;;;;;;;0.40;0.40;;;21.00;73.00;;;;;;4828548;29;20437;-64
2024/03/02 11:29:35;;;;;;;0.30;0.20;;;20.50;73.40;;;;;;4845471;29;20433;-63
2024/03/02 11:32:20;;;;;;;0.30;0.30;;;19.60;74.50;;;;;;4839369;29;20210;-64
2024/03/02 11:34:49;;;;;;;0.30;0.30;;;18.80;76.20;;;;;;4845413;29;20799;-63
2024/03/02 11:37:16;;;;;;;0.30;0.30;;;18.00;78.50;;;;;;4845572;29;20427;-63
2024/03/02 11:39:46;;;;;;;0.30;0.20;;;17.40;79.50;;;;;;4845545;29;20467;-65
2024/03/02 11:42:16;;;;;;;0.30;0.30;;;17.10;81.90;;;;;;4845360;29;20781;-65
2024/03/02 11:44:50;;;;;;;0.30;0.30;;;16.80;83.10;;;;;;4845143;29;20456;-65
2024/03/02 11:47:17;;;;;;;0.37;0.37;;;16.50;83.50;;;;;;4845177;29;20400;-67
2024/03/02 11:49:45;;;;;;;0.30;0.20;;;16.30;84.30;;;;;;4844835;29;20395;-64
2024/03/02 11:52:17;;;;;;;0.30;0.30;;;16.10;84.40;;;;;;4844146;29;20399;-65
2024/03/02 11:54:46;;;;;;;0.70;0.60;;;15.90;85.40;;;;;;4844760;29;20525;-65
2024/03/02 11:57:16;;;;;;;0.30;0.20;;;15.80;87.10;;;;;;4844677;29;20439;-67
2024/03/02 11:59:43;;;;;;;0.40;0.40;;;15.80;85.90;;;;;;4844708;29;20394;-67
2024/03/02 12:02:15;;;;;;;0.30;0.30;;;15.80;85.90;;;;;;4844744;29;20459;-69
2024/03/02 12:04:42;;;;;;;0.30;0.30;;;15.70;86.70;;;;;;4844309;29;20505;-68
2024/03/02 12:07:09;;;;;;;0.30;0.20;;;15.70;87.50;;;;;;4844484;29;20462;-67
2024/03/02 12:09:35;;;;;;;0.30;0.30;;;15.60;86.70;;;;;;4844645;29;20427;-67
2024/03/02 12:12:10;;;;;;;0.30;0.30;;;15.60;88.10;;;;;;4844627;29;20481;-67
2024/03/02 12:14:37;;;;;;;0.30;0.30;;;15.50;87.40;;;;;;4843928;29;20462;-64
2024/03/02 12:17:04;;;;;;;0.30;0.30;;;15.50;88.30;;;;;;4844458;29;20439;-63
2024/03/02 12:19:31;;;;;;;0.30;0.30;;;15.50;88.30;;;;;;4844547;29;20394;-63
2024/03/02 12:21:57;;;;;;;0.30;0.30;;;15.40;87.80;;;;;;4844587;29;20471;-64
2024/03/02 12:24:24;;;;;;;0.53;0.53;;;15.50;88.20;;;;;;4843951;29;20399;-64
2024/03/02 12:26:51;;;;;;;0.30;0.30;;;15.50;86.70;;;;;;4844282;29;20410;-63
2024/03/02 12:29:21;;;;;;;0.30;0.30;;;15.50;87.30;;;;;;4844195;29;20913;-63
2024/03/02 12:31:54;;;;;;;0.30;0.30;;;15.60;87.20;;;;;;4844550;29;20415;-63
2024/03/02 12:34:21;;;;;;;0.30;0.30;;;15.70;88.00;;;;;;4843980;29;20471;-63
2024/03/02 12:36:49;;;;;;;0.30;0.30;;;15.70;87.10;;;;;;4844163;29;20535;-63
2024/03/02 12:39:16;;;;;;;0.30;0.30;;;15.80;87.80;;;;;;4844167;29;20431;-63
2024/03/02 12:41:42;;;;;;;0.30;0.20;;;15.90;86.40;;;;;;4844248;29;20768;-63
2024/03/02 12:44:08;;;;;;;0.40;0.40;;;15.90;86.30;;;;;;4844057;29;20439;-63
2024/03/02 12:46:33;;;;;;;0.30;0.30;;;16.00;86.70;;;;;;4843807;29;20428;-64
2024/03/02 12:49:07;;;;;;;0.30;0.30;;;16.00;86.10;;;;;;4844117;29;20787;-63
2024/03/02 12:51:32;;;;;;;0.30;0.27;;;16.10;85.80;;;;;;4844192;29;20413;-63
2024/03/02 12:53:58;;;;;;;0.30;0.30;;;16.20;85.40;;;;;;4843760;29;20464;-63
2024/03/02 12:56:25;;;;;;;0.77;0.77;;;16.20;85.30;;;;;;4843516;29;20227;-63
2024/03/02 12:58:54;;;;;;;0.30;0.30;;;16.30;85.40;;;;;;4843843;29;20176;-62
2024/03/02 13:01:20;;;;;;;0.30;0.30;;;16.30;86.40;;;;;;4843632;29;20499;-64
2024/03/02 13:03:49;;;;;;;0.30;0.30;;;16.30;86.60;;;;;;4842359;29;21015;-63
2024/03/02 13:06:16;;;;;;;0.40;0.40;;;16.40;82.80;;;;;;4842535;29;20635;-64
2024/03/02 13:08:42;;;;;;;0.30;0.30;;;16.40;85.40;;;;;;4841624;29;20934;-63
2024/03/02 13:11:08;;;;;;;0.30;0.30;;;16.40;86.20;;;;;;4842987;29;20461;-63
2024/03/02 13:13:34;;;;;;;0.30;0.30;;;16.30;86.20;;;;;;4843054;29;20966;-63
2024/03/02 13:16:00;;;;;;;0.30;0.30;;;16.30;87.00;;;;;;4842115;29;20295;-63
2024/03/02 13:18:26;;;;;;;0.30;0.30;;;16.30;87.50;;;;;;4843367;29;20491;-64
2024/03/02 13:20:52;;;;;;;0.30;0.30;;;16.30;88.20;;;;;;4844736;29;20770;-64
2024/03/02 13:23:18;;;;;;;0.30;0.30;;;16.30;87.10;;;;;;4843804;29;20456;-64
2024/03/02 13:25:43;;;;;;;0.30;0.20;;;16.30;86.50;;;;;;4843252;29;20947;-64
2024/03/02 13:28:09;;;;;;;0.30;0.20;;;16.20;85.30;;;;;;4843839;29;20194;-63
2024/03/02 13:30:35;;;;;;;0.80;0.80;;;16.20;85.20;;;;;;4844223;29;20195;-63
2024/03/02 13:33:01;;;;;;;0.30;0.30;;;16.20;85.60;;;;;;4844203;29;20191;-63
2024/03/02 13:35:26;;;;;;;0.30;0.30;;;16.20;85.70;;;;;;4843118;29;20468;-63
2024/03/02 13:37:52;;;;;;;0.30;0.30;;;16.20;84.50;;;;;;4844221;29;20256;-63
2024/03/02 13:40:19;;;;;;;0.30;0.20;;;16.20;84.70;;;;;;4827458;29;20680;-63
2024/03/02 13:42:47;;;;;;;0.30;0.20;;;16.30;84.80;;;;;;4844745;29;20193;-63
2024/03/02 13:45:13;;;;;;;0.30;0.20;;;16.30;84.60;;;;;;4843744;29;20462;-64
2024/03/02 13:47:39;;;;;;;0.30;0.30;;;16.30;84.30;;;;;;4844104;29;20428;-63
2024/03/02 13:50:06;;;;;;;0.30;0.30;;;16.30;84.50;;;;;;4845049;29;20937;-64
2024/03/02 13:52:31;;;;;;;0.30;0.30;;;16.30;84.20;;;;;;4846232;29;20216;-62
2024/03/02 13:54:57;;;;;;;0.30;0.30;;;16.40;83.60;;;;;;4846635;29;20476;-63
2024/03/02 13:57:23;;;;;;;0.30;0.20;;;16.40;82.90;;;;;;4847268;29;20203;-63
2024/03/02 13:59:48;;;;;;;0.30;0.30;;;16.50;82.10;;;;;;4858279;29;20183;-62
2024/03/02 14:02:15;;;;;;;0.30;0.20;;;16.40;82.10;;;;;;4864237;29;20175;-64
2024/03/02 14:04:41;;;;;;;0.30;0.20;;;16.40;82.40;;;;;;4861983;29;20234;-63
2024/03/02 14:07:07;;;;;;;0.30;0.30;;;16.40;82.60;;;;;;4861051;29;20522;-64
2024/03/02 14:09:33;;;;;;;0.40;0.40;;;16.40;81.70;;;;;;4848758;29;20428;-64
2024/03/02 14:12:00;;;;;;;0.30;0.30;;;16.40;80.80;;;;;;4842677;29;20428;-64
2024/03/02 14:14:26;;;;;;;0.30;0.30;;;16.40;80.70;;;;;;4842068;29;20210;-64
2024/03/02 14:16:53;;;;;;;0.30;0.30;;;16.40;79.90;;;;;;4842611;29;20435;-64
2024/03/02 14:19:21;;;;;;;0.30;0.30;;;16.40;79.60;;;;;;4851906;29;20419;-64
2024/03/02 14:21:47;;;;;;;0.30;0.30;;;16.40;79.60;;;;;;4860961;29;20767;-64
2024/03/02 14:24:13;;;;;;;0.30;0.30;;;16.40;80.10;;;;;;4860531;29;20431;-64
2024/03/02 14:26:39;;;;;;;0.30;0.20;;;16.40;79.00;;;;;;4852119;29;20460;-64
2024/03/02 14:29:05;;;;;;;0.33;0.33;;;16.40;77.90;;;;;;4842605;29;20185;-64
2024/03/02 14:31:33;;;;;;;0.30;0.20;;;16.30;78.30;;;;;;4842619;29;20949;-65
2024/03/02 14:33:59;;;;;;;0.30;0.20;;;16.30;78.80;;;;;;4842274;29;20547;-63
2024/03/02 14:36:27;;;;;;;0.30;0.30;;;16.30;78.40;;;;;;4825595;29;20443;-63
2024/03/02 14:38:53;;;;;;;0.30;0.30;;;16.30;78.60;;;;;;4847506;29;20398;-67
2024/03/02 14:41:19;;;;;;;0.30;0.30;;;16.30;77.90;;;;;;4860402;29;20415;-67
2024/03/02 14:43:44;;;;;;;0.30;0.30;;;16.20;77.90;;;;;;4860355;29;21012;-67
2024/03/02 14:46:11;;;;;;;0.30;0.30;;;16.20;78.50;;;;;;4844392;29;20203;-64
2024/03/02 14:48:37;;;;;;;0.40;0.40;;;16.20;77.40;;;;;;4846323;29;20191;-64
2024/03/02 14:51:04;;;;;;;0.30;0.30;;;16.30;77.10;;;;;;4860076;29;20438;-65
2024/03/02 14:53:29;;;;;;;0.30;0.30;;;16.20;76.10;;;;;;4860694;29;20482;-65
2024/03/02 14:55:55;;;;;;;0.30;0.30;;;16.20;77.00;;;;;;4843438;29;20868;-65
2024/03/02 14:58:21;;;;;;;0.30;0.30;;;16.20;76.10;;;;;;4843427;29;20258;-65
2024/03/02 15:00:46;;;;;;;0.30;0.20;;;16.20;75.50;;;;;;4825765;29;20187;-64
2024/03/02 15:03:12;;;;;;;0.30;0.30;;;16.20;75.90;;;;;;4842133;29;20247;-64
2024/03/02 15:05:38;;;;;;;0.30;0.30;;;16.10;76.00;;;;;;4841561;29;20294;-64
2024/03/02 15:08:05;;;;;;;0.30;0.20;;;16.10;76.40;;;;;;4841944;29;20677;-65
2024/03/02 15:10:33;;;;;;;0.30;0.20;;;16.00;77.10;;;;;;4842095;29;20489;-65
2024/03/02 15:12:59;;;;;;;0.30;0.20;;;16.00;77.20;;;;;;4842003;29;20412;-65
2024/03/02 15:15:25;;;;;;;0.30;0.30;;;16.00;77.60;;;;;;4841707;29;20997;-65
2024/03/02 15:17:52;;;;;;;0.30;0.30;;;16.00;78.10;;;;;;4825336;29;20646;-63
2024/03/02 15:20:18;;;;;;;0.30;0.20;;;16.00;77.30;;;;;;4858874;29;20422;-66
2024/03/02 15:22:43;;;;;;;0.30;0.30;;;16.00;76.70;;;;;;4860017;29;20415;-63
2024/03/02 15:25:09;;;;;;;0.30;0.30;;;15.90;76.80;;;;;;4859664;29;20393;-64
2024/03/02 15:27:35;;;;;;;0.30;0.30;;;15.90;77.00;;;;;;4861816;29;20505;-64
2024/03/02 15:30:01;;;;;;;0.30;0.30;;;15.90;78.30;;;;;;4863069;29;20181;-64
2024/03/02 15:32:26;;;;;;;0.30;0.30;;;15.80;79.80;;;;;;4863623;29;20913;-65
2024/03/02 15:34:53;;;;;;;0.30;0.30;;;15.70;80.70;;;;;;4863371;29;20207;-67
2024/03/02 15:37:18;;;;;;;0.30;0.30;;;15.60;81.20;;;;;;4863494;29;20197;-66
2024/03/02 15:39:44;;;;;;;0.30;0.30;;;15.50;81.50;;;;;;4833966;29;20952;-68
2024/03/02 15:42:10;;;;;;;0.30;0.30;;;15.40;82.40;;;;;;4845001;29;20182;-65
2024/03/02 15:44:35;;;;;;;0.30;0.20;;;15.40;83.30;;;;;;4828282;29;20190;-65
2024/03/02 15:47:01;;;;;;;0.40;0.30;;;15.20;83.60;;;;;;4844975;29;20202;-66
2024/03/02 15:49:28;;;;;;;0.30;0.30;;;15.20;82.40;;;;;;4855164;29;20622;-65
2024/03/02 15:51:53;;;;;;;0.30;0.30;;;15.10;83.30;;;;;;4863565;29;20516;-63
2024/03/02 15:54:19;;;;;;;0.30;0.30;;;14.90;84.90;;;;;;4863073;29;20442;-64
2024/03/02 15:56:45;;;;;;;0.30;0.30;;;14.80;85.40;;;;;;4863466;29;20195;-65
2024/03/02 15:59:11;;;;;;;0.30;0.30;;;14.80;86.20;;;;;;4862525;29;20257;-64
2024/03/02 16:01:36;;;;;;;0.30;0.30;;;14.70;87.30;;;;;;4863349;29;20421;-65
2024/03/02 16:04:02;;;;;;;0.30;0.30;;;14.60;88.30;;;;;;4863309;29;20176;-65
2024/03/02 16:06:28;;;;;;;0.30;0.30;;;14.50;89.30;;;;;;4862726;29;20203;-65
2024/03/02 16:08:55;;;;;;;0.30;0.30;;;14.50;89.40;;;;;;4856760;29;20195;-65
2024/03/02 16:11:21;;;;;;;0.30;0.30;;;14.40;89.70;;;;;;4844566;29;20169;-64
2024/03/02 16:13:47;;;;;;;0.30;0.30;;;14.30;90.00;;;;;;4827883;29;20504;-64
2024/03/02 16:16:12;;;;;;;0.30;0.30;;;14.20;90.20;;;;;;4844106;29;20219;-65
2024/03/02 16:18:38;;;;;;;0.30;0.30;;;14.10;90.50;;;;;;4847967;29;20705;-64
2024/03/02 16:21:04;;;;;;;0.30;0.30;;;14.10;90.90;;;;;;4862778;29;20180;-65
2024/03/02 16:23:29;;;;;;;0.30;0.30;;;14.00;91.20;;;;;;4862826;29;20595;-64
2024/03/02 16:25:55;;;;;;;0.30;0.30;;;13.90;91.20;;;;;;4847868;29;20982;-65
2024/03/02 16:28:21;;;;;;;0.30;0.30;;;13.90;91.50;;;;;;4844127;29;20260;-66
2024/03/02 16:30:47;;;;;;;0.30;0.20;;;13.90;92.00;;;;;;4844070;29;20205;-66
2024/03/02 16:33:13;;;;;;;0.30;0.30;;;13.80;92.40;;;;;;4843816;29;20188;-65
2024/03/02 16:35:38;;;;;;;0.30;0.30;;;13.70;92.30;;;;;;4853060;29;20472;-65
2024/03/02 16:38:04;;;;;;;0.30;0.30;;;13.70;92.50;;;;;;4861890;29;20176;-64
2024/03/02 16:40:31;;;;;;;0.40;0.40;;;13.70;92.70;;;;;;4862222;29;20326;-65
2024/03/02 16:42:57;;;;;;;0.40;0.40;;;13.70;92.90;;;;;;4862575;29;20424;-66
2024/03/02 16:45:23;;;;;;;0.43;0.43;;;13.60;93.20;;;;;;4854103;29;20421;-65
2024/03/02 16:47:48;;;;;;;0.30;0.30;;;13.50;93.60;;;;;;4844447;29;20485;-65
2024/03/02 16:50:16;;;;;;;0.30;0.30;;;13.50;94.00;;;;;;4844361;29;20173;-65
2024/03/02 16:52:42;;;;;;;0.30;0.30;;;13.50;94.30;;;;;;4843938;29;20188;-65
2024/03/02 16:55:08;;;;;;;0.30;0.30;;;13.40;94.50;;;;;;4848673;29;20971;-65
2024/03/02 16:57:34;;;;;;;0.33;0.33;;;13.40;94.70;;;;;;4862298;29;20380;-65
2024/03/02 16:59:59;;;;;;;0.30;0.30;;;13.30;94.90;;;;;;4845883;29;20799;-66
2024/03/02 17:02:25;;;;;;;0.30;0.30;;;13.20;95.10;;;;;;4862814;29;20625;-63
2024/03/02 17:04:51;;;;;;;0.67;0.67;;;13.20;95.50;;;;;;4858768;29;20183;-66
2024/03/02 17:07:16;;;;;;;0.33;0.33;;;13.10;95.90;;;;;;4843226;29;20252;-66
2024/03/02 17:09:42;;;;;;;0.30;0.30;;;13.10;96.00;;;;;;4843641;29;20207;-66
2024/03/02 17:12:08;;;;;;;0.30;0.30;;;13.00;96.20;;;;;;4843357;29;20176;-65
2024/03/02 17:14:33;;;;;;;0.30;0.30;;;13.00;96.80;;;;;;4842884;29;20570;-65
2024/03/02 17:16:59;;;;;;;0.30;0.30;;;12.80;97.30;;;;;;4843166;29;20193;-66
2024/03/02 17:19:24;;;;;;;0.30;0.30;;;12.80;97.60;;;;;;4826971;29;20184;-66
2024/03/02 17:21:51;;;;;;;0.30;0.30;;;12.80;98.10;;;;;;4843401;29;20184;-65
2024/03/02 17:24:16;;;;;;;0.30;0.30;;;12.80;98.40;;;;;;4842747;29;20192;-65
2024/03/02 17:26:42;;;;;;;0.30;0.30;;;12.80;98.70;;;;;;4844911;29;20484;-65
2024/03/02 17:29:08;;;;;;;0.30;0.30;;;12.80;98.70;;;;;;4861742;29;20182;-66
2024/03/02 17:31:33;;;;;;;0.30;0.30;;;12.80;99.00;;;;;;4833632;29;20192;-63
2024/03/02 17:33:59;;;;;;;0.30;0.30;;;12.80;99.00;;;;;;4826352;29;20185;-65
2024/03/02 17:36:25;;;;;;;0.30;0.30;;;12.70;99.00;;;;;;4843143;29;20566;-64
2024/03/02 17:38:51;;;;;;;0.30;0.30;;;12.70;99.70;;;;;;4843156;29;20384;-63
2024/03/02 17:41:17;;;;;;;0.40;0.40;;;12.70;99.50;;;;;;4842604;29;20421;-64
2024/03/02 17:43:42;;;;;;;0.30;0.30;;;12.60;99.60;;;;;;4842114;29;20477;-64
2024/03/02 17:46:08;;;;;;;0.70;0.70;;;12.60;99.70;;;;;;4834229;29;20258;-64
2024/03/02 17:48:33;;;;;;;0.30;0.30;;;12.50;99.90;;;;;;4844812;29;20520;-66
2024/03/02 17:50:59;;;;;;;0.30;0.30;;;12.50;99.90;;;;;;4855479;29;20651;-66
2024/03/02 17:53:25;;;;;;;0.50;0.50;;;12.40;99.90;;;;;;4842662;29;20192;-63
2024/03/02 17:55:50;;;;;;;0.30;0.30;;;12.40;99.90;;;;;;4842171;29;20223;-66
2024/03/02 17:58:16;;;;;;;0.40;0.40;;;12.30;99.90;;;;;;4843046;29;20241;-65